aviador You're here:

K4MR Decoded Metar

Melrose Gunnery Range in NM, United States
Report Time2018-02-19 10:58:00
UTC Time2018-02-19 12:02:58
Flight Rules vfr VFR
Wind260° at 07 kt
W.Rank260° ranks 8
Current wind is below 260° avg. (11.4)
Visibility9999 m
Phenomena:N/A
Clouds:Few 080 Hf
Expected CloudBase > 1,600 ft AGL from Temp-Dew spread
CeilingNone
Temp09°C
Dew Point05°C (76% RH)
AAT5.4°C
QNH1007 hPa
Raw Report
METAR K4MR 191058Z AUTO 26007KT 10SM FEW080 09/05 A2973 RMK AO2 SLP030
T00900054 $=

Extra information for K4MR:More info

Metar Taf Metar & Taf Last 4 Metars F.Rules Stats Wind Profile Meteogram Temp Stats Airport Information Weather charts Add Link Nearby VenuesMetar ALERT Operation Metar Decoded Social comments